sensor_id;sensor_type;location;lat;lon;timestamp;pressure;altitude;pressure_sealevel;temperature;humidity
78845;BME280;68195;50.854;2.860;2023-03-04T00:01:29;102730.16;;;4.72;70.19
78845;BME280;68195;50.854;2.860;2023-03-04T00:03:57;102712.84;;;4.59;70.17
78845;BME280;68195;50.854;2.860;2023-03-04T00:06:24;102716.31;;;4.61;70.13
78845;BME280;68195;50.854;2.860;2023-03-04T00:08:52;102696.38;;;4.47;70.65
78845;BME280;68195;50.854;2.860;2023-03-04T00:11:18;102736.19;;;4.69;70.87
78845;BME280;68195;50.854;2.860;2023-03-04T00:13:46;102730.06;;;4.57;70.95
78845;BME280;68195;50.854;2.860;2023-03-04T00:16:11;102744.78;;;4.64;71.58
78845;BME280;68195;50.854;2.860;2023-03-04T00:18:36;102743.97;;;4.69;70.90
78845;BME280;68195;50.854;2.860;2023-03-04T00:21:02;102687.69;;;4.38;70.69
78845;BME280;68195;50.854;2.860;2023-03-04T00:23:30;102722.31;;;4.58;69.96
78845;BME280;68195;50.854;2.860;2023-03-04T00:25:58;102736.16;;;4.63;70.58
78845;BME280;68195;50.854;2.860;2023-03-04T00:28:26;102741.34;;;4.66;71.26
78845;BME280;68195;50.854;2.860;2023-03-04T00:30:54;102742.19;;;4.64;71.84
78845;BME280;68195;50.854;2.860;2023-03-04T00:33:19;102730.06;;;4.55;71.94
78845;BME280;68195;50.854;2.860;2023-03-04T00:35:45;102733.53;;;4.62;71.70
78845;BME280;68195;50.854;2.860;2023-03-04T00:38:10;102733.50;;;4.56;71.77
78845;BME280;68195;50.854;2.860;2023-03-04T00:40:38;102708.47;;;4.50;71.86
78845;BME280;68195;50.854;2.860;2023-03-04T00:43:04;102707.59;;;4.49;71.55
78845;BME280;68195;50.854;2.860;2023-03-04T00:45:31;102694.59;;;4.42;72.18
78845;BME280;68195;50.854;2.860;2023-03-04T00:47:59;102704.13;;;4.46;72.50
78845;BME280;68195;50.854;2.860;2023-03-04T00:50:26;102691.09;;;4.35;72.64
78845;BME280;68195;50.854;2.860;2023-03-04T00:52:52;102717.97;;;4.52;72.59
78845;BME280;68195;50.854;2.860;2023-03-04T00:55:17;102676.41;;;4.29;73.19
78845;BME280;68195;50.854;2.860;2023-03-04T00:57:45;102723.16;;;4.56;73.29
78845;BME280;68195;50.854;2.860;2023-03-04T01:00:11;102722.25;;;4.49;73.12
78845;BME280;68195;50.854;2.860;2023-03-04T01:02:39;102720.53;;;4.51;73.08
78845;BME280;68195;50.854;2.860;2023-03-04T01:05:07;102723.13;;;4.52;72.54
78845;BME280;68195;50.854;2.860;2023-03-04T01:07:35;102699.78;;;4.39;72.19
78845;BME280;68195;50.854;2.860;2023-03-04T01:10:01;102719.75;;;4.61;71.88
78845;BME280;68195;50.854;2.860;2023-03-04T01:12:26;102711.13;;;4.61;71.76
78845;BME280;68195;50.854;2.860;2023-03-04T01:14:52;102709.41;;;4.61;71.64
78845;BME280;68195;50.854;2.860;2023-03-04T01:17:20;102706.81;;;4.61;71.18
78845;BME280;68195;50.854;2.860;2023-03-04T01:19:45;102712.94;;;4.76;70.93
78845;BME280;68195;50.854;2.860;2023-03-04T01:22:13;102716.44;;;4.85;70.63
78845;BME280;68195;50.854;2.860;2023-03-04T01:24:41;102712.16;;;4.89;70.72
78845;BME280;68195;50.854;2.860;2023-03-04T01:27:09;102700.88;;;4.81;70.81
78845;BME280;68195;50.854;2.860;2023-03-04T01:29:39;102700.00;;;4.77;70.75
78845;BME280;68195;50.854;2.860;2023-03-04T01:32:07;102684.47;;;4.74;70.43
78845;BME280;68195;50.854;2.860;2023-03-04T01:34:37;102690.56;;;4.84;70.62
78845;BME280;68195;50.854;2.860;2023-03-04T01:37:05;102613.53;;;4.40;70.24
78845;BME280;68195;50.854;2.860;2023-03-04T01:39:33;102649.91;;;4.63;70.39
78845;BME280;68195;50.854;2.860;2023-03-04T01:42:01;102673.22;;;4.69;71.22
78845;BME280;68195;50.854;2.860;2023-03-04T01:44:29;102667.13;;;4.61;71.56
78845;BME280;68195;50.854;2.860;2023-03-04T01:46:59;102677.53;;;4.70;71.12
78845;BME280;68195;50.854;2.860;2023-03-04T01:49:27;102682.75;;;4.76;71.50
78845;BME280;68195;50.854;2.860;2023-03-04T01:51:53;102575.47;;;4.13;71.74
78845;BME280;68195;50.854;2.860;2023-03-04T01:54:20;102685.34;;;4.73;72.15
78845;BME280;68195;50.854;2.860;2023-03-04T01:56:47;102642.09;;;4.54;72.71
78845;BME280;68195;50.854;2.860;2023-03-04T02:01:44;102642.91;;;4.48;73.15
78845;BME280;68195;50.854;2.860;2023-03-04T02:04:13;102621.28;;;4.35;73.25
78845;BME280;68195;50.854;2.860;2023-03-04T02:06:40;102659.38;;;4.61;73.57
78845;BME280;68195;50.854;2.860;2023-03-04T02:09:06;102655.88;;;4.56;73.48
78845;BME280;68195;50.854;2.860;2023-03-04T02:11:33;102638.59;;;4.45;73.64
78845;BME280;68195;50.854;2.860;2023-03-04T02:14:01;102657.63;;;4.58;73.60
78845;BME280;68195;50.854;2.860;2023-03-04T02:16:30;102640.34;;;4.52;73.31
78845;BME280;68195;50.854;2.860;2023-03-04T02:18:58;102609.22;;;4.39;72.91
78845;BME280;68195;50.854;2.860;2023-03-04T02:21:28;102649.91;;;4.66;72.95
78845;BME280;68195;50.854;2.860;2023-03-04T02:26:34;102636.09;;;4.65;71.93
78845;BME280;68195;50.854;2.860;2023-03-04T02:29:04;102633.50;;;4.64;72.44
78845;BME280;68195;50.854;2.860;2023-03-04T02:31:40;102599.81;;;4.50;72.77
78845;BME280;68195;50.854;2.860;2023-03-04T02:34:22;102645.66;;;4.80;72.32
78845;BME280;68195;50.854;2.860;2023-03-04T02:36:52;102642.28;;;4.90;71.65
78845;BME280;68195;50.854;2.860;2023-03-04T02:39:29;102639.66;;;4.84;71.80
78845;BME280;68195;50.854;2.860;2023-03-04T02:41:59;102597.28;;;4.62;71.62
78845;BME280;68195;50.854;2.860;2023-03-04T02:44:27;102620.63;;;4.79;71.71
78845;BME280;68195;50.854;2.860;2023-03-04T02:46:57;102582.59;;;4.58;71.30
78845;BME280;68195;50.854;2.860;2023-03-04T02:49:26;102634.50;;;4.92;70.68
78845;BME280;68195;50.854;2.860;2023-03-04T02:52:00;102617.19;;;4.83;70.63
78845;BME280;68195;50.854;2.860;2023-03-04T02:54:25;102625.03;;;4.96;70.39
78845;BME280;68195;50.854;2.860;2023-03-04T02:56:53;102611.16;;;4.81;70.52
78845;BME280;68195;50.854;2.860;2023-03-04T02:59:21;102603.34;;;4.72;71.41
78845;BME280;68195;50.854;2.860;2023-03-04T03:01:49;102617.19;;;4.76;72.02
78845;BME280;68195;50.854;2.860;2023-03-04T03:04:15;102632.72;;;4.79;72.56
78845;BME280;68195;50.854;2.860;2023-03-04T03:06:43;102621.44;;;4.63;72.60
78845;BME280;68195;50.854;2.860;2023-03-04T03:09:08;102629.19;;;4.66;73.17
78845;BME280;68195;50.854;2.860;2023-03-04T03:11:34;102633.50;;;4.68;73.42
78845;BME280;68195;50.854;2.860;2023-03-04T03:13:59;102612.75;;;4.55;73.89
78845;BME280;68195;50.854;2.860;2023-03-04T03:16:31;102579.00;;;4.30;73.61
78845;BME280;68195;50.854;2.860;2023-03-04T03:18:57;102592.88;;;4.43;73.40
78845;BME280;68195;50.854;2.860;2023-03-04T03:21:22;102619.69;;;4.59;74.15
78845;BME280;68195;50.854;2.860;2023-03-04T03:23:49;102625.69;;;4.58;73.67
78845;BME280;68195;50.854;2.860;2023-03-04T03:26:16;102630.06;;;4.60;73.95
78845;BME280;68195;50.854;2.860;2023-03-04T03:28:45;102621.34;;;4.50;74.34
78845;BME280;68195;50.854;2.860;2023-03-04T03:31:13;102637.78;;;4.54;74.20
78845;BME280;68195;50.854;2.860;2023-03-04T03:33:38;102640.34;;;4.56;74.43
78845;BME280;68195;50.854;2.860;2023-03-04T03:36:08;102624.78;;;4.46;74.44
78845;BME280;68195;50.854;2.860;2023-03-04T03:38:36;102626.50;;;4.46;74.19
78845;BME280;68195;50.854;2.860;2023-03-04T03:41:01;102620.47;;;4.47;74.00
78845;BME280;68195;50.854;2.860;2023-03-04T03:43:27;102614.44;;;4.43;74.24
78845;BME280;68195;50.854;2.860;2023-03-04T03:45:54;102623.09;;;4.50;73.88
78845;BME280;68195;50.854;2.860;2023-03-04T03:48:22;102634.34;;;4.58;74.17
78845;BME280;68195;50.854;2.860;2023-03-04T03:50:51;102593.66;;;4.34;74.16
78845;BME280;68195;50.854;2.860;2023-03-04T03:53:18;102625.69;;;4.55;74.21
78845;BME280;68195;50.854;2.860;2023-03-04T03:55:46;102634.34;;;4.58;74.00
78845;BME280;68195;50.854;2.860;2023-03-04T03:58:11;102628.28;;;4.58;74.15
78845;BME280;68195;50.854;2.860;2023-03-04T04:00:42;102572.88;;;4.19;73.77
78845;BME280;68195;50.854;2.860;2023-03-04T04:03:11;102639.50;;;4.60;73.75
78845;BME280;68195;50.854;2.860;2023-03-04T04:05:40;102614.41;;;4.45;73.93
78845;BME280;68195;50.854;2.860;2023-03-04T04:08:13;102639.50;;;4.60;73.66
78845;BME280;68195;50.854;2.860;2023-03-04T04:10:42;102592.78;;;4.29;73.84
78845;BME280;68195;50.854;2.860;2023-03-04T04:13:08;102626.56;;;4.55;73.93
78845;BME280;68195;50.854;2.860;2023-03-04T04:15:35;102616.16;;;4.44;73.72
78845;BME280;68195;50.854;2.860;2023-03-04T04:18:03;102644.69;;;4.61;73.59
78845;BME280;68195;50.854;2.860;2023-03-04T04:20:31;102646.44;;;4.64;73.83
78845;BME280;68195;50.854;2.860;2023-03-04T04:22:57;102624.81;;;4.49;74.30
78845;BME280;68195;50.854;2.860;2023-03-04T04:25:24;102649.03;;;4.64;74.26
78845;BME280;68195;50.854;2.860;2023-03-04T04:27:50;102596.25;;;4.34;74.43
78845;BME280;68195;50.854;2.860;2023-03-04T04:30:17;102602.28;;;4.36;74.47
78845;BME280;68195;50.854;2.860;2023-03-04T04:32:48;102619.59;;;4.46;74.55
78845;BME280;68195;50.854;2.860;2023-03-04T04:35:15;102643.81;;;4.56;74.78
78845;BME280;68195;50.854;2.860;2023-03-04T04:37:43;102603.13;;;4.30;74.65
78845;BME280;68195;50.854;2.860;2023-03-04T04:40:11;102610.94;;;4.38;74.26
78845;BME280;68195;50.854;2.860;2023-03-04T04:42:39;102644.69;;;4.61;74.42
78845;BME280;68195;50.854;2.860;2023-03-04T04:45:05;102637.81;;;4.63;73.97
78845;BME280;68195;50.854;2.860;2023-03-04T04:47:31;102645.56;;;4.62;74.31
78845;BME280;68195;50.854;2.860;2023-03-04T04:49:56;102622.25;;;4.54;73.89
78845;BME280;68195;50.854;2.860;2023-03-04T04:52:24;102642.13;;;4.63;73.63
78845;BME280;68195;50.854;2.860;2023-03-04T04:54:52;102641.28;;;4.65;73.37
78845;BME280;68195;50.854;2.860;2023-03-04T04:57:21;102606.72;;;4.49;73.83
78845;BME280;68195;50.854;2.860;2023-03-04T04:59:46;102632.63;;;4.63;74.10
78845;BME280;68195;50.854;2.860;2023-03-04T05:02:12;102612.75;;;4.51;74.24
78845;BME280;68195;50.854;2.860;2023-03-04T05:04:37;102606.69;;;4.51;74.35
78845;BME280;68195;50.854;2.860;2023-03-04T05:07:05;102634.38;;;4.63;74.23
78845;BME280;68195;50.854;2.860;2023-03-04T05:09:35;102625.69;;;4.58;74.44
78845;BME280;68195;50.854;2.860;2023-03-04T05:12:01;102628.28;;;4.51;74.21
78845;BME280;68195;50.854;2.860;2023-03-04T05:14:26;102613.56;;;4.49;74.68
78845;BME280;68195;50.854;2.860;2023-03-04T05:16:52;102610.94;;;4.40;74.93
78845;BME280;68195;50.854;2.860;2023-03-04T05:19:22;102630.88;;;4.51;75.06
78845;BME280;68195;50.854;2.860;2023-03-04T05:21:50;102612.66;;;4.38;75.36
78845;BME280;68195;50.854;2.860;2023-03-04T05:24:20;102641.16;;;4.47;75.77
78845;BME280;68195;50.854;2.860;2023-03-04T05:26:46;102642.03;;;4.49;75.58
78845;BME280;68195;50.854;2.860;2023-03-04T05:29:15;102590.97;;;4.19;75.43
78845;BME280;68195;50.854;2.860;2023-03-04T05:31:46;102627.31;;;4.37;75.40
78845;BME280;68195;50.854;2.860;2023-03-04T05:34:13;102622.16;;;4.37;75.64
78845;BME280;68195;50.854;2.860;2023-03-04T05:36:39;102634.25;;;4.43;75.54
78845;BME280;68195;50.854;2.860;2023-03-04T05:39:04;102642.06;;;4.47;76.03
78845;BME280;68195;50.854;2.860;2023-03-04T05:41:33;102635.13;;;4.46;75.33
78845;BME280;68195;50.854;2.860;2023-03-04T05:43:58;102623.00;;;4.35;75.30
78845;BME280;68195;50.854;2.860;2023-03-04T05:46:25;102605.69;;;4.26;75.49
78845;BME280;68195;50.854;2.860;2023-03-04T05:48:54;102624.72;;;4.37;74.75
78845;BME280;68195;50.854;2.860;2023-03-04T05:51:25;102610.06;;;4.35;74.38
78845;BME280;68195;50.854;2.860;2023-03-04T05:53:50;102610.06;;;4.38;73.88
78845;BME280;68195;50.854;2.860;2023-03-04T05:56:18;102600.56;;;4.34;73.59
78845;BME280;68195;50.854;2.860;2023-03-04T05:58:44;102644.69;;;4.58;73.62
78845;BME280;68195;50.854;2.860;2023-03-04T06:01:12;102645.56;;;4.62;73.24
78845;BME280;68195;50.854;2.860;2023-03-04T06:03:40;102633.47;;;4.56;72.42
78845;BME280;68195;50.854;2.860;2023-03-04T06:06:09;102630.06;;;4.63;71.43
78845;BME280;68195;50.854;2.860;2023-03-04T06:08:34;102604.13;;;4.52;70.77
78845;BME280;68195;50.854;2.860;2023-03-04T06:11:02;102606.75;;;4.59;70.72
78845;BME280;68195;50.854;2.860;2023-03-04T06:13:32;102636.19;;;4.85;71.04
78845;BME280;68195;50.854;2.860;2023-03-04T06:15:58;102511.63;;;4.10;70.11
78845;BME280;68195;50.854;2.860;2023-03-04T06:18:25;102637.09;;;4.93;69.17
78845;BME280;68195;50.854;2.860;2023-03-04T06:20:57;102600.72;;;4.66;69.95
78845;BME280;68195;50.854;2.860;2023-03-04T06:23:23;102621.44;;;4.70;71.11
78845;BME280;68195;50.854;2.860;2023-03-04T06:25:55;102628.34;;;4.67;72.03
78845;BME280;68195;50.854;2.860;2023-03-04T06:28:21;102643.91;;;4.71;72.39
78845;BME280;68195;50.854;2.860;2023-03-04T06:30:50;102616.19;;;4.50;72.40
78845;BME280;68195;50.854;2.860;2023-03-04T06:33:18;102659.41;;;4.68;72.52
78845;BME280;68195;50.854;2.860;2023-03-04T06:35:46;102644.69;;;4.60;72.68
78845;BME280;68195;50.854;2.860;2023-03-04T06:38:11;102618.72;;;4.40;72.24
78845;BME280;68195;50.854;2.860;2023-03-04T06:40:41;102637.75;;;4.51;72.42
78845;BME280;68195;50.854;2.860;2023-03-04T06:43:10;102633.41;;;4.44;72.41
78845;BME280;68195;50.854;2.860;2023-03-04T06:45:41;102680.13;;;4.67;72.84
78845;BME280;68195;50.854;2.860;2023-03-04T06:48:06;102648.94;;;4.48;73.47
78845;BME280;68195;50.854;2.860;2023-03-04T06:50:34;102661.00;;;4.46;73.92
78845;BME280;68195;50.854;2.860;2023-03-04T06:52:59;102648.84;;;4.36;73.66
78845;BME280;68195;50.854;2.860;2023-03-04T06:55:27;102684.34;;;4.56;73.81
78845;BME280;68195;50.854;2.860;2023-03-04T06:57:52;102654.00;;;4.28;75.45
78845;BME280;68195;50.854;2.860;2023-03-04T07:00:21;102696.41;;;4.55;76.78
78845;BME280;68195;50.854;2.860;2023-03-04T07:02:48;102710.19;;;4.52;77.62
78845;BME280;68195;50.854;2.860;2023-03-04T07:05:17;102691.09;;;4.35;78.71
78845;BME280;68195;50.854;2.860;2023-03-04T07:10:12;102705.69;;;4.24;80.84
78845;BME280;68195;50.854;2.860;2023-03-04T07:12:37;102716.09;;;4.30;80.81
78845;BME280;68195;50.854;2.860;2023-03-04T07:15:03;102717.78;;;4.28;81.50
78845;BME280;68195;50.854;2.860;2023-03-04T07:17:31;102711.75;;;4.26;82.07
78845;BME280;68195;50.854;2.860;2023-03-04T07:20:03;102677.03;;;4.01;81.66
78845;BME280;68195;50.854;2.860;2023-03-04T07:22:29;102677.94;;;4.03;82.17
78845;BME280;68195;50.854;2.860;2023-03-04T07:24:54;102671.81;;;3.95;82.62
78845;BME280;68195;50.854;2.860;2023-03-04T07:27:23;102703.88;;;4.17;82.90
78845;BME280;68195;50.854;2.860;2023-03-04T07:29:49;102731.56;;;4.27;82.84
78845;BME280;68195;50.854;2.860;2023-03-04T07:32:17;102718.59;;;4.22;82.74
78845;BME280;68195;50.854;2.860;2023-03-04T07:34:42;102687.50;;;4.13;82.75
78845;BME280;68195;50.854;2.860;2023-03-04T07:37:10;102726.50;;;4.39;82.21
78845;BME280;68195;50.854;2.860;2023-03-04T07:39:35;102703.97;;;4.26;82.53
78845;BME280;68195;50.854;2.860;2023-03-04T07:42:01;102721.31;;;4.39;82.03
78845;BME280;68195;50.854;2.860;2023-03-04T07:44:26;102727.38;;;4.44;81.66
78845;BME280;68195;50.854;2.860;2023-03-04T07:46:52;102721.31;;;4.39;82.23
78845;BME280;68195;50.854;2.860;2023-03-04T07:49:17;102738.66;;;4.51;81.81
78845;BME280;68195;50.854;2.860;2023-03-04T07:51:45;102730.03;;;4.52;82.09
78845;BME280;68195;50.854;2.860;2023-03-04T07:54:10;102714.44;;;4.44;81.83
78845;BME280;68195;50.854;2.860;2023-03-04T07:56:36;102708.41;;;4.42;81.56
78845;BME280;68195;50.854;2.860;2023-03-04T07:59:01;102730.06;;;4.57;81.03
78845;BME280;68195;50.854;2.860;2023-03-04T08:01:34;102692.84;;;4.35;81.38
78845;BME280;68195;50.854;2.860;2023-03-04T08:04:01;102737.00;;;4.61;81.18
78845;BME280;68195;50.854;2.860;2023-03-04T08:06:27;102738.75;;;4.63;81.33
78845;BME280;68195;50.854;2.860;2023-03-04T08:08:58;102725.78;;;4.59;81.63
78845;BME280;68195;50.854;2.860;2023-03-04T08:11:28;102731.88;;;4.67;81.72
78845;BME280;68195;50.854;2.860;2023-03-04T08:13:54;102706.75;;;4.52;81.10
78845;BME280;68195;50.854;2.860;2023-03-04T08:16:23;102735.34;;;4.72;81.17
78845;BME280;68195;50.854;2.860;2023-03-04T08:18:51;102673.88;;;4.37;81.42
78845;BME280;68195;50.854;2.860;2023-03-04T08:21:19;102745.72;;;4.77;81.13
78845;BME280;68195;50.854;2.860;2023-03-04T08:23:45;102695.56;;;4.56;81.27
78845;BME280;68195;50.854;2.860;2023-03-04T08:28:42;102690.38;;;4.58;80.37
78845;BME280;68195;50.854;2.860;2023-03-04T08:31:11;102728.50;;;4.83;80.23
78845;BME280;68195;50.854;2.860;2023-03-04T08:33:39;102741.56;;;5.02;80.69
78845;BME280;68195;50.854;2.860;2023-03-04T08:36:05;102713.00;;;4.89;79.52
78845;BME280;68195;50.854;2.860;2023-03-04T08:38:37;102753.75;;;5.17;78.65
78845;BME280;68195;50.854;2.860;2023-03-04T08:41:05;102733.81;;;5.05;79.55
78845;BME280;68195;50.854;2.860;2023-03-04T08:43:34;102752.88;;;5.22;78.13
78845;BME280;68195;50.854;2.860;2023-03-04T08:46:02;102747.72;;;5.24;78.40
78845;BME280;68195;50.854;2.860;2023-03-04T08:48:31;102731.25;;;5.08;79.03
78845;BME280;68195;50.854;2.860;2023-03-04T08:50:58;102726.84;;;4.91;80.83
78845;BME280;68195;50.854;2.860;2023-03-04T08:53:24;102753.63;;;4.95;82.25
78845;BME280;68195;50.854;2.860;2023-03-04T08:55:51;102757.91;;;4.88;83.33
78845;BME280;68195;50.854;2.860;2023-03-04T08:58:17;102756.09;;;4.78;83.85
78845;BME280;68195;50.854;2.860;2023-03-04T09:00:45;102752.59;;;4.71;84.64
78845;BME280;68195;50.854;2.860;2023-03-04T09:03:12;102750.84;;;4.66;85.37
78845;BME280;68195;50.854;2.860;2023-03-04T09:05:39;102724.88;;;4.54;84.65
78845;BME280;68195;50.854;2.860;2023-03-04T09:08:05;102729.25;;;4.61;84.13
78845;BME280;68195;50.854;2.860;2023-03-04T09:10:33;102717.22;;;4.70;83.61
78845;BME280;68195;50.854;2.860;2023-03-04T09:13:00;102747.56;;;4.94;83.63
78845;BME280;68195;50.854;2.860;2023-03-04T09:15:26;102747.59;;;4.98;83.28
78845;BME280;68195;50.854;2.860;2023-03-04T09:17:51;102714.72;;;4.87;82.59
78845;BME280;68195;50.854;2.860;2023-03-04T09:20:17;102719.97;;;5.03;81.35
78845;BME280;68195;50.854;2.860;2023-03-04T09:22:43;102743.41;;;5.21;81.05
78845;BME280;68195;50.854;2.860;2023-03-04T09:25:13;102746.03;;;5.30;81.24
78845;BME280;68195;50.854;2.860;2023-03-04T09:27:42;102734.00;;;5.48;80.43
78845;BME280;68195;50.854;2.860;2023-03-04T09:30:12;102721.03;;;5.49;79.46
78845;BME280;68195;50.854;2.860;2023-03-04T09:32:37;102708.94;;;5.48;79.87
78845;BME280;68195;50.854;2.860;2023-03-04T09:35:03;102724.53;;;5.58;78.75
78845;BME280;68195;50.854;2.860;2023-03-04T09:37:29;102727.16;;;5.71;79.09
78845;BME280;68195;50.854;2.860;2023-03-04T09:39:56;102686.50;;;5.53;78.51
78845;BME280;68195;50.854;2.860;2023-03-04T09:42:37;102733.22;;;5.84;77.87
78845;BME280;68195;50.854;2.860;2023-03-04T09:45:14;102721.09;;;5.69;77.25
78845;BME280;68195;50.854;2.860;2023-03-04T09:47:43;102718.53;;;5.72;76.73
78845;BME280;68195;50.854;2.860;2023-03-04T09:50:13;102728.03;;;5.80;75.12
78845;BME280;68195;50.854;2.860;2023-03-04T09:55:36;102731.50;;;5.91;76.52
78845;BME280;68195;50.854;2.860;2023-03-04T10:01:19;102728.03;;;5.83;75.33
78845;BME280;68195;50.854;2.860;2023-03-04T10:04:09;102732.38;;;5.90;75.57
78845;BME280;68195;50.854;2.860;2023-03-04T10:06:39;102738.41;;;5.93;75.82
78845;BME280;68195;50.854;2.860;2023-03-04T10:09:16;102694.31;;;5.70;75.59
78845;BME280;68195;50.854;2.860;2023-03-04T10:11:47;102736.75;;;5.97;74.19
78845;BME280;68195;50.854;2.860;2023-03-04T10:16:59;102741.84;;;5.79;75.34
78845;BME280;68195;50.854;2.860;2023-03-04T10:19:36;102735.78;;;5.67;75.71
78845;BME280;68195;50.854;2.860;2023-03-04T10:24:50;102713.25;;;5.48;76.13
78845;BME280;68195;50.854;2.860;2023-03-04T10:27:19;102735.78;;;5.63;76.52
78845;BME280;68195;50.854;2.860;2023-03-04T10:29:45;102704.63;;;5.43;76.71
78845;BME280;68195;50.854;2.860;2023-03-04T10:32:15;102741.84;;;5.66;76.91
78845;BME280;68195;50.854;2.860;2023-03-04T10:34:41;102737.50;;;5.64;77.55
78845;BME280;68195;50.854;2.860;2023-03-04T10:37:09;102724.53;;;5.61;76.92
78845;BME280;68195;50.854;2.860;2023-03-04T10:39:46;102738.38;;;5.72;76.93
78845;BME280;68195;50.854;2.860;2023-03-04T10:44:53;102728.06;;;5.81;77.68
78845;BME280;68195;50.854;2.860;2023-03-04T10:47:22;102711.59;;;5.76;77.41
78845;BME280;68195;50.854;2.860;2023-03-04T10:49:53;102715.06;;;5.73;75.85
78845;BME280;68195;50.854;2.860;2023-03-04T10:54:52;102712.47;;;5.78;76.75
78845;BME280;68195;50.854;2.860;2023-03-04T10:59:57;102728.94;;;5.94;76.45
78845;BME280;68195;50.854;2.860;2023-03-04T11:05:15;102731.50;;;5.86;77.20
78845;BME280;68195;50.854;2.860;2023-03-04T11:13:00;102712.50;;;5.86;77.42
78845;BME280;68195;50.854;2.860;2023-03-04T11:15:28;102715.13;;;5.98;77.38
78845;BME280;68195;50.854;2.860;2023-03-04T11:18:09;102704.78;;;6.03;77.53
78845;BME280;68195;50.854;2.860;2023-03-04T11:20:40;102716.84;;;6.18;76.93
78845;BME280;68195;50.854;2.860;2023-03-04T11:23:13;102702.16;;;6.10;76.04
78845;BME280;68195;50.854;2.860;2023-03-04T11:25:49;102697.00;;;6.07;76.09
78845;BME280;68195;50.854;2.860;2023-03-04T11:28:28;102707.38;;;6.13;75.68
78845;BME280;68195;50.854;2.860;2023-03-04T11:31:07;102664.09;;;5.91;74.72
78845;BME280;68195;50.854;2.860;2023-03-04T11:33:43;102710.84;;;6.15;75.07
78845;BME280;68195;50.854;2.860;2023-03-04T11:38:50;102696.13;;;5.94;73.83
78845;BME280;68195;50.854;2.860;2023-03-04T11:41:22;102705.63;;;6.02;74.17
78845;BME280;68195;50.854;2.860;2023-03-04T11:43:51;102692.63;;;6.00;74.63
78845;BME280;68195;50.854;2.860;2023-03-04T11:52:38;102693.53;;;6.21;73.96
78845;BME280;68195;50.854;2.860;2023-03-04T12:00:39;102684.84;;;6.34;74.65
78845;BME280;68195;50.854;2.860;2023-03-04T12:27:16;102649.31;;;6.67;72.40
78845;BME280;68195;50.854;2.860;2023-03-04T12:30:00;102646.69;;;6.73;72.78
78845;BME280;68195;50.854;2.860;2023-03-04T12:32:48;102645.84;;;6.78;72.35
78845;BME280;68195;50.854;2.860;2023-03-04T12:38:11;102633.66;;;6.91;72.15
78845;BME280;68195;50.854;2.860;2023-03-04T12:40:53;102631.03;;;7.01;70.85
78845;BME280;68195;50.854;2.860;2023-03-04T12:43:41;102619.78;;;7.00;71.49
78845;BME280;68195;50.854;2.860;2023-03-04T12:54:39;102612.03;;;6.89;70.62
78845;BME280;68195;50.854;2.860;2023-03-04T12:57:18;102606.84;;;6.86;72.65
78845;BME280;68195;50.854;2.860;2023-03-04T13:10:27;102584.34;;;6.85;75.02
78845;BME280;68195;50.854;2.860;2023-03-04T13:12:54;102581.72;;;6.91;74.41
78845;BME280;68195;50.854;2.860;2023-03-04T13:17:51;102582.59;;;6.87;74.36
78845;BME280;68195;50.854;2.860;2023-03-04T13:43:54;102569.75;;;6.61;75.50
78845;BME280;68195;50.854;2.860;2023-03-04T14:01:32;102574.16;;;6.27;80.85
78845;BME280;68195;50.854;2.860;2023-03-04T14:03:59;102569.84;;;6.35;80.76
78845;BME280;68195;50.854;2.860;2023-03-04T14:06:29;102564.59;;;6.46;79.43
78845;BME280;68195;50.854;2.860;2023-03-04T14:08:56;102556.81;;;6.43;79.56
78845;BME280;68195;50.854;2.860;2023-03-04T14:11:33;102569.78;;;6.49;79.19
78845;BME280;68195;50.854;2.860;2023-03-04T14:14:04;102545.59;;;6.36;79.25
78845;BME280;68195;50.854;2.860;2023-03-04T14:16:37;102558.56;;;6.41;79.56
78845;BME280;68195;50.854;2.860;2023-03-04T14:19:16;102556.81;;;6.41;79.62
78845;BME280;68195;50.854;2.860;2023-03-04T14:21:44;102553.31;;;6.50;78.40
78845;BME280;68195;50.854;2.860;2023-03-04T14:24:16;102555.06;;;6.51;76.95
78845;BME280;68195;50.854;2.860;2023-03-04T14:26:41;102542.94;;;6.50;77.33
78845;BME280;68195;50.854;2.860;2023-03-04T14:29:26;102544.69;;;6.51;77.81
78845;BME280;68195;50.854;2.860;2023-03-04T14:31:54;102533.38;;;6.56;77.67
78845;BME280;68195;50.854;2.860;2023-03-04T14:34:29;102546.34;;;6.64;77.35
78845;BME280;68195;50.854;2.860;2023-03-04T14:37:01;102528.19;;;6.66;76.57
78845;BME280;68195;50.854;2.860;2023-03-04T14:39:31;102523.00;;;6.60;76.68
78845;BME280;68195;50.854;2.860;2023-03-04T14:42:08;102514.41;;;6.48;77.59
78845;BME280;68195;50.854;2.860;2023-03-04T14:44:43;102538.63;;;6.50;78.74
78845;BME280;68195;50.854;2.860;2023-03-04T14:49:45;102524.88;;;6.24;80.44
78845;BME280;68195;50.854;2.860;2023-03-04T14:52:32;102526.59;;;6.22;81.13
78845;BME280;68195;50.854;2.860;2023-03-04T14:55:21;102543.88;;;6.26;81.55
78845;BME280;68195;50.854;2.860;2023-03-04T14:57:51;102531.78;;;6.26;81.72
78845;BME280;68195;50.854;2.860;2023-03-04T15:05:33;102517.94;;;6.32;82.31
78845;BME280;68195;50.854;2.860;2023-03-04T15:08:03;102517.03;;;6.39;81.68
78845;BME280;68195;50.854;2.860;2023-03-04T15:10:36;102507.50;;;6.41;81.75
78845;BME280;68195;50.854;2.860;2023-03-04T15:13:07;102483.34;;;6.33;81.24
78845;BME280;68195;50.854;2.860;2023-03-04T15:15:45;102497.97;;;6.43;80.28
78845;BME280;68195;50.854;2.860;2023-03-04T15:23:25;102491.13;;;6.33;79.44
78845;BME280;68195;50.854;2.860;2023-03-04T15:25:53;102488.53;;;6.31;78.58
78845;BME280;68195;50.854;2.860;2023-03-04T15:28:19;102480.75;;;6.31;79.36
78845;BME280;68195;50.854;2.860;2023-03-04T15:30:47;102491.09;;;6.36;78.91
78845;BME280;68195;50.854;2.860;2023-03-04T15:33:15;102491.06;;;6.39;79.89
78845;BME280;68195;50.854;2.860;2023-03-04T15:35:50;102485.06;;;6.34;79.83
78845;BME280;68195;50.854;2.860;2023-03-04T15:38:18;102473.88;;;6.23;80.46
78845;BME280;68195;50.854;2.860;2023-03-04T15:40:45;102465.22;;;6.19;80.14